Time;durP1;ratioP1;P1;durP2;ratioP2;P2;SDS_P1;SDS_P2;PMS_P1;PMS_P2;Temp;Humidity;BMP_temperature;BMP_pressure;BME280_temperature;BME280_humidity;BME280_pressure;Samples;Min_cycle;Max_cycle;Signal;HPM_P1;HPM_P2
2024/01/18 00:00:56;;;;;;;3.50;3.20;;;;;;;;;;5116376;28;20481;-65
2024/01/18 00:03:24;;;;;;;3.42;3.13;;;;;;;;;;5116065;28;20202;-65
2024/01/18 00:05:51;;;;;;;3.33;3.03;;;;;;;;;;5115891;28;20542;-65
2024/01/18 00:08:19;;;;;;;3.13;2.83;;;;;;;;;;5115648;28;20252;-65
2024/01/18 00:10:48;;;;;;;3.20;2.90;;;;;;;;;;5115571;28;20260;-65
2024/01/18 00:13:15;;;;;;;2.80;2.60;;;;;;;;;;5115647;28;20235;-65
2024/01/18 00:15:43;;;;;;;2.92;2.72;;;;;;;;;;5115755;28;20289;-65
2024/01/18 00:18:11;;;;;;;3.05;2.60;;;;;;;;;;5116149;28;20575;-65
2024/01/18 00:20:39;;;;;;;2.90;2.70;;;;;;;;;;5115787;28;20230;-65
2024/01/18 00:23:06;;;;;;;3.05;2.83;;;;;;;;;;5115630;28;20211;-65
2024/01/18 00:25:34;;;;;;;3.03;2.80;;;;;;;;;;5116777;28;20242;-65
2024/01/18 00:28:03;;;;;;;2.90;2.70;;;;;;;;;;5116433;28;20610;-66
2024/01/18 00:30:30;;;;;;;2.80;2.60;;;;;;;;;;5116677;28;20229;-65
2024/01/18 00:32:58;;;;;;;2.60;2.40;;;;;;;;;;5115447;28;20708;-65
2024/01/18 00:35:25;;;;;;;2.60;2.40;;;;;;;;;;5116025;28;20289;-66
2024/01/18 00:37:53;;;;;;;2.95;2.65;;;;;;;;;;5115766;28;20215;-65
2024/01/18 00:40:20;;;;;;;2.72;2.53;;;;;;;;;;5116618;28;20223;-65
2024/01/18 00:42:48;;;;;;;2.70;2.50;;;;;;;;;;5115454;28;20452;-66
2024/01/18 00:45:17;;;;;;;2.55;2.35;;;;;;;;;;5116102;28;20286;-65
2024/01/18 00:47:44;;;;;;;2.60;2.40;;;;;;;;;;5115835;28;20306;-65
2024/01/18 00:50:12;;;;;;;2.40;2.20;;;;;;;;;;5115551;28;20297;-65
2024/01/18 00:52:39;;;;;;;2.72;2.53;;;;;;;;;;5116066;28;20233;-65
2024/01/18 00:55:09;;;;;;;2.45;2.25;;;;;;;;;;5115693;28;20242;-65
2024/01/18 00:57:37;;;;;;;2.63;2.42;;;;;;;;;;5115288;28;20210;-65
2024/01/18 01:00:05;;;;;;;2.60;2.40;;;;;;;;;;5115529;28;20502;-65
2024/01/18 01:02:34;;;;;;;2.47;2.28;;;;;;;;;;5117864;28;20213;-65
2024/01/18 01:05:01;;;;;;;1.98;1.83;;;;;;;;;;5119021;28;20351;-65
2024/01/18 01:07:28;;;;;;;2.42;2.22;;;;;;;;;;5119946;28;20614;-65
2024/01/18 01:09:56;;;;;;;2.40;2.20;;;;;;;;;;5119320;28;20290;-65
2024/01/18 01:12:23;;;;;;;2.72;2.30;;;;;;;;;;5119283;28;20546;-65
2024/01/18 01:14:51;;;;;;;2.03;1.92;;;;;;;;;;5119391;28;20242;-65
2024/01/18 01:17:18;;;;;;;2.25;2.05;;;;;;;;;;5119436;28;20469;-65
2024/01/18 01:19:47;;;;;;;2.30;2.10;;;;;;;;;;5119024;28;20268;-66
2024/01/18 01:22:15;;;;;;;2.10;1.90;;;;;;;;;;5119051;28;20292;-65
2024/01/18 01:24:41;;;;;;;2.28;1.98;;;;;;;;;;5119695;28;20283;-65
2024/01/18 01:27:09;;;;;;;2.00;1.90;;;;;;;;;;5119662;28;20212;-66
2024/01/18 01:29:37;;;;;;;1.80;1.70;;;;;;;;;;5119309;28;20268;-65
2024/01/18 01:32:05;;;;;;;1.92;1.80;;;;;;;;;;5118736;28;20218;-65
2024/01/18 01:34:32;;;;;;;2.13;1.90;;;;;;;;;;5119110;28;20214;-66
2024/01/18 01:37:01;;;;;;;2.30;2.10;;;;;;;;;;5118768;28;20203;-65
2024/01/18 01:39:30;;;;;;;2.15;1.95;;;;;;;;;;5118723;28;20284;-65
2024/01/18 01:41:58;;;;;;;1.70;1.60;;;;;;;;;;5118473;28;20657;-65
2024/01/18 01:44:25;;;;;;;2.38;1.92;;;;;;;;;;5118746;28;20230;-65
2024/01/18 01:46:52;;;;;;;1.70;1.60;;;;;;;;;;5118188;28;20236;-65
2024/01/18 01:49:21;;;;;;;2.17;2.08;;;;;;;;;;5118774;28;20290;-65
2024/01/18 01:51:49;;;;;;;1.90;1.70;;;;;;;;;;5118846;28;20258;-65
2024/01/18 01:54:20;;;;;;;2.03;1.58;;;;;;;;;;5118458;28;20268;-65
2024/01/18 01:56:48;;;;;;;2.13;1.92;;;;;;;;;;5119049;28;20203;-66
2024/01/18 01:59:16;;;;;;;1.60;1.50;;;;;;;;;;5118188;28;20644;-66
2024/01/18 02:01:44;;;;;;;1.88;1.77;;;;;;;;;;5118465;28;20835;-65
2024/01/18 02:04:11;;;;;;;1.77;1.67;;;;;;;;;;5118471;28;20257;-65
2024/01/18 02:06:39;;;;;;;1.67;1.58;;;;;;;;;;5117712;28;20226;-65
2024/01/18 02:09:07;;;;;;;1.75;1.65;;;;;;;;;;5118196;28;20203;-65
2024/01/18 02:11:36;;;;;;;1.50;1.40;;;;;;;;;;5117857;28;20341;-65
2024/01/18 02:14:04;;;;;;;1.60;1.50;;;;;;;;;;5117168;28;20203;-65
2024/01/18 02:16:32;;;;;;;1.60;1.50;;;;;;;;;;5117776;28;20301;-66
2024/01/18 02:18:59;;;;;;;1.70;1.60;;;;;;;;;;5117912;28;20225;-66
2024/01/18 02:21:27;;;;;;;1.70;1.60;;;;;;;;;;5118108;28;20237;-65
2024/01/18 02:23:56;;;;;;;1.60;1.50;;;;;;;;;;5117684;28;20207;-65
2024/01/18 02:26:25;;;;;;;1.50;1.40;;;;;;;;;;5117935;28;20209;-65
2024/01/18 02:28:56;;;;;;;1.52;1.42;;;;;;;;;;5117645;28;20210;-65
2024/01/18 02:31:23;;;;;;;1.48;1.38;;;;;;;;;;5117612;28;20263;-65
2024/01/18 02:33:51;;;;;;;1.50;1.40;;;;;;;;;;5117557;28;20272;-65
2024/01/18 02:36:19;;;;;;;2.20;1.40;;;;;;;;;;5117508;28;20203;-65
2024/01/18 02:38:47;;;;;;;1.55;1.45;;;;;;;;;;5117033;28;20217;-66
2024/01/18 02:41:14;;;;;;;1.55;1.45;;;;;;;;;;5117217;28;20222;-66
2024/01/18 02:43:43;;;;;;;1.35;1.25;;;;;;;;;;5117711;28;20206;-65
2024/01/18 02:46:11;;;;;;;1.23;1.13;;;;;;;;;;5117295;28;20202;-65
2024/01/18 02:48:38;;;;;;;1.40;1.30;;;;;;;;;;5117363;28;20286;-65
2024/01/18 02:51:06;;;;;;;1.50;1.40;;;;;;;;;;5117251;28;20203;-65
2024/01/18 02:53:33;;;;;;;1.30;1.20;;;;;;;;;;5117098;28;20263;-66
2024/01/18 02:56:01;;;;;;;1.65;1.55;;;;;;;;;;5117550;28;20206;-65
2024/01/18 02:58:28;;;;;;;1.30;1.20;;;;;;;;;;5117434;28;20308;-66
2024/01/18 03:00:57;;;;;;;1.45;1.35;;;;;;;;;;5117347;28;20303;-66
2024/01/18 03:03:26;;;;;;;1.52;1.42;;;;;;;;;;5117133;28;20498;-65
2024/01/18 03:05:53;;;;;;;1.42;1.33;;;;;;;;;;5117001;28;20591;-66
2024/01/18 03:08:21;;;;;;;1.40;1.30;;;;;;;;;;5116523;28;20237;-66
2024/01/18 03:10:48;;;;;;;1.38;1.27;;;;;;;;;;5116233;28;20293;-66
2024/01/18 03:13:16;;;;;;;1.20;1.10;;;;;;;;;;5116805;28;20246;-66
2024/01/18 03:15:43;;;;;;;1.40;1.30;;;;;;;;;;5115527;28;20202;-66
2024/01/18 03:18:12;;;;;;;1.38;1.27;;;;;;;;;;5116837;28;20199;-66
2024/01/18 03:20:40;;;;;;;1.20;1.10;;;;;;;;;;5131271;27;20309;-66
2024/01/18 03:23:07;;;;;;;1.25;1.15;;;;;;;;;;5136288;27;20288;-66
2024/01/18 03:25:34;;;;;;;1.20;1.10;;;;;;;;;;5136063;27;20283;-66
2024/01/18 03:28:02;;;;;;;1.30;1.20;;;;;;;;;;5136858;27;20209;-66
2024/01/18 03:30:30;;;;;;;1.38;1.27;;;;;;;;;;5137008;27;20203;-65
2024/01/18 03:32:57;;;;;;;1.30;1.20;;;;;;;;;;5136857;27;20486;-66
2024/01/18 03:35:26;;;;;;;1.40;1.30;;;;;;;;;;5136773;27;20650;-65
2024/01/18 03:37:54;;;;;;;1.20;1.10;;;;;;;;;;5137161;27;20268;-65
2024/01/18 03:40:21;;;;;;;1.60;1.50;;;;;;;;;;5137352;27;20251;-65
2024/01/18 03:42:49;;;;;;;1.27;1.17;;;;;;;;;;5136666;27;20202;-66
2024/01/18 03:45:17;;;;;;;1.50;1.40;;;;;;;;;;5136947;27;20228;-65
2024/01/18 03:47:44;;;;;;;1.40;1.30;;;;;;;;;;5136624;27;20202;-65
2024/01/18 03:50:12;;;;;;;1.40;1.30;;;;;;;;;;5136101;27;20264;-66
2024/01/18 03:52:41;;;;;;;1.67;1.48;;;;;;;;;;5136614;27;20198;-65
2024/01/18 03:55:09;;;;;;;1.45;1.35;;;;;;;;;;5136670;27;20256;-65
2024/01/18 03:57:37;;;;;;;1.38;1.27;;;;;;;;;;5137508;28;20245;-65
2024/01/18 04:00:05;;;;;;;1.50;1.35;;;;;;;;;;5136326;28;20263;-65
2024/01/18 04:02:32;;;;;;;1.20;1.10;;;;;;;;;;5136130;28;20229;-65
2024/01/18 04:05:00;;;;;;;1.40;1.30;;;;;;;;;;5135899;28;20206;-65
2024/01/18 04:07:28;;;;;;;1.20;1.10;;;;;;;;;;5136322;28;20259;-66
2024/01/18 04:09:57;;;;;;;1.50;1.40;;;;;;;;;;5136566;28;20195;-65
2024/01/18 04:12:25;;;;;;;1.25;1.15;;;;;;;;;;5136519;28;20198;-65
2024/01/18 04:14:52;;;;;;;1.40;1.30;;;;;;;;;;5136726;28;20287;-65
2024/01/18 04:17:20;;;;;;;1.50;1.40;;;;;;;;;;5136779;28;20212;-65
2024/01/18 04:19:47;;;;;;;1.42;1.33;;;;;;;;;;5136475;28;20203;-65
2024/01/18 04:22:15;;;;;;;1.58;1.30;;;;;;;;;;5135618;28;20313;-65
2024/01/18 04:24:43;;;;;;;1.38;1.27;;;;;;;;;;5136040;28;20603;-65
2024/01/18 04:27:11;;;;;;;1.40;1.30;;;;;;;;;;5135666;28;20259;-65
2024/01/18 04:29:39;;;;;;;1.50;1.40;;;;;;;;;;5136358;28;20586;-65
2024/01/18 04:32:07;;;;;;;1.60;1.50;;;;;;;;;;5136675;28;20269;-65
2024/01/18 04:34:34;;;;;;;1.48;1.38;;;;;;;;;;5135551;28;20230;-65
2024/01/18 04:37:02;;;;;;;1.50;1.40;;;;;;;;;;5136791;27;20194;-65
2024/01/18 04:39:29;;;;;;;1.55;1.45;;;;;;;;;;5140216;27;20255;-65
2024/01/18 04:41:57;;;;;;;1.48;1.38;;;;;;;;;;5139730;27;20237;-65
2024/01/18 04:44:26;;;;;;;1.65;1.55;;;;;;;;;;5139886;27;20212;-65
2024/01/18 04:46:53;;;;;;;2.10;1.90;;;;;;;;;;5139831;27;20210;-65
2024/01/18 04:49:21;;;;;;;1.75;1.65;;;;;;;;;;5139759;27;20206;-65
2024/01/18 04:51:49;;;;;;;1.70;1.60;;;;;;;;;;5139020;27;20259;-65
2024/01/18 04:54:17;;;;;;;1.83;1.73;;;;;;;;;;5139438;27;20266;-65
2024/01/18 04:56:45;;;;;;;1.60;1.50;;;;;;;;;;5139558;27;20396;-65
2024/01/18 04:59:12;;;;;;;1.85;1.75;;;;;;;;;;5139607;27;20668;-65
2024/01/18 05:01:41;;;;;;;1.80;1.70;;;;;;;;;;5138819;27;20290;-66
2024/01/18 05:04:08;;;;;;;1.95;1.77;;;;;;;;;;5139213;27;20202;-65
2024/01/18 05:06:36;;;;;;;1.83;1.73;;;;;;;;;;5138751;27;20210;-65
2024/01/18 05:09:03;;;;;;;1.90;1.80;;;;;;;;;;5139450;27;20210;-66
2024/01/18 05:11:31;;;;;;;1.88;1.77;;;;;;;;;;5139739;27;20567;-65
2024/01/18 05:13:58;;;;;;;2.08;1.88;;;;;;;;;;5138878;27;20203;-65
2024/01/18 05:16:26;;;;;;;1.90;1.80;;;;;;;;;;5138988;27;20202;-65
2024/01/18 05:18:55;;;;;;;2.20;1.90;;;;;;;;;;5138350;27;20202;-65
2024/01/18 05:21:23;;;;;;;2.55;2.35;;;;;;;;;;5138750;27;20233;-65
2024/01/18 05:23:50;;;;;;;2.20;2.00;;;;;;;;;;5138167;27;20262;-65
2024/01/18 05:26:18;;;;;;;2.45;2.25;;;;;;;;;;5138644;27;20213;-65
2024/01/18 05:28:45;;;;;;;2.33;2.13;;;;;;;;;;5138593;27;20593;-65
2024/01/18 05:31:13;;;;;;;2.47;2.28;;;;;;;;;;5138482;27;20278;-65
2024/01/18 05:33:40;;;;;;;2.38;2.17;;;;;;;;;;5138089;27;20206;-65
2024/01/18 05:36:09;;;;;;;2.40;2.20;;;;;;;;;;5137907;27;20206;-65
2024/01/18 05:38:36;;;;;;;2.50;2.30;;;;;;;;;;5137608;27;20210;-65
2024/01/18 05:41:04;;;;;;;2.55;2.35;;;;;;;;;;5137457;27;20572;-65
2024/01/18 05:43:31;;;;;;;2.53;2.33;;;;;;;;;;5137569;27;20202;-66
2024/01/18 05:45:59;;;;;;;2.90;2.70;;;;;;;;;;5137462;27;20202;-65
2024/01/18 05:48:26;;;;;;;2.53;2.33;;;;;;;;;;5137324;27;20202;-65
2024/01/18 05:50:53;;;;;;;2.70;2.50;;;;;;;;;;5137411;27;20202;-65
2024/01/18 05:53:22;;;;;;;2.40;2.20;;;;;;;;;;5137128;27;20198;-65
2024/01/18 05:55:50;;;;;;;3.10;2.83;;;;;;;;;;5136536;27;20203;-65
2024/01/18 05:58:17;;;;;;;2.90;2.70;;;;;;;;;;5136984;27;20216;-65
2024/01/18 06:00:45;;;;;;;2.65;2.45;;;;;;;;;;5135776;27;20241;-66
2024/01/18 06:03:12;;;;;;;2.90;2.70;;;;;;;;;;5136404;27;20614;-65
2024/01/18 06:05:40;;;;;;;2.70;2.50;;;;;;;;;;5136778;27;20202;-65
2024/01/18 06:08:07;;;;;;;2.90;2.70;;;;;;;;;;5135828;27;20228;-65
2024/01/18 06:10:36;;;;;;;2.78;2.58;;;;;;;;;;5134966;27;20217;-65
2024/01/18 06:13:03;;;;;;;3.10;2.80;;;;;;;;;;5135764;27;20638;-65
2024/01/18 06:15:31;;;;;;;3.45;3.15;;;;;;;;;;5135146;27;20202;-65
2024/01/18 06:18:03;;;;;;;2.75;2.55;;;;;;;;;;5134495;27;20202;-65
2024/01/18 06:20:30;;;;;;;3.20;2.90;;;;;;;;;;5134772;27;20202;-65
2024/01/18 06:22:58;;;;;;;2.90;2.70;;;;;;;;;;5135541;27;20609;-65
2024/01/18 06:25:26;;;;;;;2.92;2.72;;;;;;;;;;5135576;27;20213;-65
2024/01/18 06:27:55;;;;;;;3.05;2.78;;;;;;;;;;5136250;27;20604;-65
2024/01/18 06:30:24;;;;;;;3.20;2.90;;;;;;;;;;5135390;27;20202;-65
2024/01/18 06:32:51;;;;;;;3.40;3.10;;;;;;;;;;5134308;27;20214;-65
2024/01/18 06:35:18;;;;;;;3.08;2.78;;;;;;;;;;5134696;27;20202;-65
2024/01/18 06:37:46;;;;;;;3.40;3.10;;;;;;;;;;5134858;27;20194;-65
2024/01/18 06:40:15;;;;;;;3.05;2.85;;;;;;;;;;5133383;27;20266;-65
2024/01/18 06:42:42;;;;;;;2.92;2.72;;;;;;;;;;5134945;27;20353;-65
2024/01/18 06:45:11;;;;;;;3.08;2.78;;;;;;;;;;5134895;27;20224;-65
2024/01/18 06:47:39;;;;;;;3.72;3.35;;;;;;;;;;5133156;27;20238;-65
2024/01/18 06:50:06;;;;;;;3.20;2.90;;;;;;;;;;5133481;27;20209;-65
2024/01/18 06:52:34;;;;;;;3.42;3.13;;;;;;;;;;5134026;27;20220;-65
2024/01/18 06:55:01;;;;;;;3.35;3.05;;;;;;;;;;5134516;27;20205;-65
2024/01/18 06:57:29;;;;;;;3.25;2.95;;;;;;;;;;5135177;27;20198;-65
2024/01/18 06:59:56;;;;;;;3.20;2.90;;;;;;;;;;5133486;27;20389;-65
2024/01/18 07:02:25;;;;;;;2.80;2.60;;;;;;;;;;5135474;27;20240;-65
2024/01/18 07:04:52;;;;;;;3.20;2.90;;;;;;;;;;5134929;27;20212;-65
2024/01/18 07:07:20;;;;;;;3.42;3.13;;;;;;;;;;5135062;27;20216;-65
2024/01/18 07:09:47;;;;;;;3.60;3.13;;;;;;;;;;5134687;27;20209;-65
2024/01/18 07:12:15;;;;;;;3.45;3.10;;;;;;;;;;5133780;27;20199;-65
2024/01/18 07:14:42;;;;;;;3.53;3.22;;;;;;;;;;5134275;27;20210;-65
2024/01/18 07:17:10;;;;;;;3.60;3.30;;;;;;;;;;5135069;27;20296;-65
2024/01/18 07:19:40;;;;;;;3.58;3.28;;;;;;;;;;5135734;27;20202;-65
2024/01/18 07:22:10;;;;;;;3.35;3.15;;;;;;;;;;5136135;27;20226;-65
2024/01/18 07:24:37;;;;;;;3.45;3.15;;;;;;;;;;5135837;27;20202;-65
2024/01/18 07:27:09;;;;;;;3.63;3.33;;;;;;;;;;5134771;27;20202;-65
2024/01/18 07:29:36;;;;;;;3.60;3.30;;;;;;;;;;5135059;27;20210;-65
2024/01/18 07:32:03;;;;;;;3.50;3.20;;;;;;;;;;5134513;27;20206;-65
2024/01/18 07:34:32;;;;;;;3.60;3.30;;;;;;;;;;5134002;27;20245;-65
2024/01/18 07:37:00;;;;;;;4.45;3.10;;;;;;;;;;5135041;27;20202;-65
2024/01/18 07:39:28;;;;;;;3.88;3.22;;;;;;;;;;5134780;27;20204;-65
2024/01/18 07:41:55;;;;;;;3.97;3.58;;;;;;;;;;5134205;27;20238;-65
2024/01/18 07:44:23;;;;;;;3.40;3.10;;;;;;;;;;5134373;27;20496;-64
2024/01/18 07:46:50;;;;;;;4.03;3.63;;;;;;;;;;5133506;27;20201;-65
2024/01/18 07:49:18;;;;;;;3.60;3.30;;;;;;;;;;5134173;27;20360;-65
2024/01/18 07:51:45;;;;;;;3.60;3.30;;;;;;;;;;5134934;27;20578;-65
2024/01/18 07:54:14;;;;;;;3.70;3.40;;;;;;;;;;5133395;27;20213;-66
2024/01/18 07:56:41;;;;;;;3.67;3.38;;;;;;;;;;5134305;27;20245;-65
2024/01/18 07:59:09;;;;;;;3.80;3.50;;;;;;;;;;5133955;28;20218;-65
2024/01/18 08:01:36;;;;;;;3.35;3.05;;;;;;;;;;5134671;28;20194;-65
2024/01/18 08:04:04;;;;;;;4.30;3.80;;;;;;;;;;5133814;28;20218;-65
2024/01/18 08:06:32;;;;;;;4.07;3.50;;;;;;;;;;5134035;28;20429;-65
2024/01/18 08:08:59;;;;;;;3.97;3.60;;;;;;;;;;5134470;28;20613;-65
2024/01/18 08:11:28;;;;;;;3.65;3.35;;;;;;;;;;5134010;27;20198;-65
2024/01/18 08:13:55;;;;;;;3.90;3.60;;;;;;;;;;5138750;27;20205;-65
2024/01/18 08:16:23;;;;;;;4.20;3.80;;;;;;;;;;5138372;27;20209;-65
2024/01/18 08:18:50;;;;;;;3.90;3.50;;;;;;;;;;5137865;27;20203;-65
2024/01/18 08:21:17;;;;;;;3.90;3.60;;;;;;;;;;5137578;27;20233;-65
2024/01/18 08:23:45;;;;;;;3.75;3.40;;;;;;;;;;5138387;27;20214;-65
2024/01/18 08:26:12;;;;;;;4.18;3.78;;;;;;;;;;5138195;27;20202;-65
2024/01/18 08:28:41;;;;;;;3.72;3.42;;;;;;;;;;5138084;27;20210;-64
2024/01/18 08:31:09;;;;;;;4.03;3.63;;;;;;;;;;5137003;27;20701;-65
2024/01/18 08:33:37;;;;;;;3.60;3.30;;;;;;;;;;5138476;27;20205;-65
2024/01/18 08:36:05;;;;;;;3.80;3.50;;;;;;;;;;5137817;27;20209;-65
2024/01/18 08:38:32;;;;;;;4.13;3.80;;;;;;;;;;5137889;27;20458;-66
2024/01/18 08:41:00;;;;;;;3.75;3.45;;;;;;;;;;5138094;27;20480;-65
2024/01/18 08:43:31;;;;;;;3.75;3.45;;;;;;;;;;5137672;27;20548;-65
2024/01/18 08:46:01;;;;;;;3.88;3.40;;;;;;;;;;5138005;27;20209;-65
2024/01/18 08:48:28;;;;;;;3.60;3.30;;;;;;;;;;5137455;27;20202;-65
2024/01/18 08:50:56;;;;;;;3.60;3.30;;;;;;;;;;5137967;27;20236;-66
2024/01/18 08:53:23;;;;;;;4.03;3.63;;;;;;;;;;5137511;27;20191;-65
2024/01/18 08:55:50;;;;;;;3.90;3.60;;;;;;;;;;5137472;27;20456;-65
2024/01/18 08:58:18;;;;;;;4.13;3.72;;;;;;;;;;5137155;27;20213;-65
2024/01/18 09:00:45;;;;;;;3.80;3.50;;;;;;;;;;5137510;27;20633;-65
2024/01/18 09:03:14;;;;;;;3.80;3.50;;;;;;;;;;5137321;27;20213;-65
2024/01/18 09:05:42;;;;;;;3.53;3.22;;;;;;;;;;5136781;27;20202;-65
2024/01/18 09:08:10;;;;;;;3.50;3.20;;;;;;;;;;5137871;27;20203;-65
2024/01/18 09:10:37;;;;;;;3.50;3.20;;;;;;;;;;5137270;27;20268;-65
2024/01/18 09:13:06;;;;;;;3.78;3.47;;;;;;;;;;5138081;27;20605;-66
2024/01/18 09:15:35;;;;;;;3.63;3.33;;;;;;;;;;5137470;27;20499;-65
2024/01/18 09:18:02;;;;;;;3.85;3.55;;;;;;;;;;5138722;27;20239;-65
2024/01/18 09:20:31;;;;;;;4.10;3.67;;;;;;;;;;5138613;27;20199;-65
2024/01/18 09:22:58;;;;;;;3.47;3.17;;;;;;;;;;5137893;27;20222;-65
2024/01/18 09:25:26;;;;;;;3.60;3.30;;;;;;;;;;5137075;27;20245;-65
2024/01/18 09:27:54;;;;;;;4.07;3.30;;;;;;;;;;5137257;27;20237;-65
2024/01/18 09:30:23;;;;;;;3.85;3.40;;;;;;;;;;5136911;27;20202;-65
2024/01/18 09:32:50;;;;;;;3.80;3.50;;;;;;;;;;5136764;27;20285;-65
2024/01/18 09:35:18;;;;;;;4.03;3.40;;;;;;;;;;5136435;27;20202;-65
2024/01/18 09:37:47;;;;;;;3.67;3.33;;;;;;;;;;5137700;27;20404;-65
2024/01/18 09:40:15;;;;;;;3.53;3.22;;;;;;;;;;5137091;27;20718;-65
2024/01/18 09:42:45;;;;;;;3.40;3.10;;;;;;;;;;5136827;27;20287;-65
2024/01/18 09:45:15;;;;;;;3.50;3.20;;;;;;;;;;5136936;27;20200;-65
2024/01/18 09:47:43;;;;;;;3.30;3.00;;;;;;;;;;5136880;27;20206;-65
2024/01/18 09:50:11;;;;;;;3.25;2.95;;;;;;;;;;5137314;27;20555;-65
2024/01/18 09:52:39;;;;;;;3.60;3.30;;;;;;;;;;5136715;27;20199;-65
2024/01/18 09:55:09;;;;;;;3.78;3.47;;;;;;;;;;5136452;27;20283;-65
2024/01/18 09:57:37;;;;;;;3.50;3.20;;;;;;;;;;5136869;27;20229;-65
2024/01/18 10:00:05;;;;;;;3.30;3.00;;;;;;;;;;5136451;27;20241;-65
2024/01/18 10:02:33;;;;;;;3.50;3.20;;;;;;;;;;5135674;27;20588;-65
2024/01/18 10:05:01;;;;;;;3.58;3.28;;;;;;;;;;5136666;27;20206;-66
2024/01/18 10:07:28;;;;;;;3.53;3.22;;;;;;;;;;5136223;27;20274;-65
2024/01/18 10:09:56;;;;;;;3.90;3.60;;;;;;;;;;5136024;27;20555;-65
2024/01/18 10:12:30;;;;;;;3.80;3.50;;;;;;;;;;5135868;27;20202;-65
2024/01/18 10:14:58;;;;;;;3.85;3.47;;;;;;;;;;5135563;27;20212;-65
2024/01/18 10:17:25;;;;;;;3.90;3.50;;;;;;;;;;5135578;27;20202;-65
2024/01/18 10:19:53;;;;;;;4.13;3.72;;;;;;;;;;5134654;27;20465;-65
2024/01/18 10:22:22;;;;;;;3.85;3.50;;;;;;;;;;5136179;27;20205;-65
2024/01/18 10:24:50;;;;;;;3.80;3.50;;;;;;;;;;5135133;27;20237;-65
2024/01/18 10:27:19;;;;;;;4.20;3.83;;;;;;;;;;5135053;27;20202;-65
2024/01/18 10:29:48;;;;;;;4.15;3.55;;;;;;;;;;5135629;27;20206;-65
2024/01/18 10:32:16;;;;;;;3.97;3.58;;;;;;;;;;5136309;27;20224;-66
2024/01/18 10:34:45;;;;;;;4.53;3.78;;;;;;;;;;5134173;27;20202;-65
2024/01/18 10:37:15;;;;;;;4.35;3.95;;;;;;;;;;5136723;27;20573;-65
2024/01/18 10:39:43;;;;;;;3.50;3.20;;;;;;;;;;5136404;27;20214;-65
2024/01/18 10:42:12;;;;;;;3.72;3.42;;;;;;;;;;5135247;27;20241;-65
2024/01/18 10:44:40;;;;;;;4.00;3.70;;;;;;;;;;5134627;27;20230;-65
2024/01/18 10:47:12;;;;;;;4.30;3.90;;;;;;;;;;5134812;27;20295;-65
2024/01/18 10:49:41;;;;;;;4.20;3.80;;;;;;;;;;5135298;27;20198;-65
2024/01/18 10:52:09;;;;;;;4.88;4.20;;;;;;;;;;5134892;27;20380;-65
2024/01/18 10:54:37;;;;;;;4.40;3.70;;;;;;;;;;5135177;27;20206;-65
2024/01/18 10:57:05;;;;;;;3.88;3.58;;;;;;;;;;5134831;27;20267;-65
2024/01/18 10:59:33;;;;;;;4.10;3.70;;;;;;;;;;5134306;27;20241;-65
2024/01/18 11:02:01;;;;;;;4.03;3.58;;;;;;;;;;5134890;27;20479;-65
2024/01/18 11:04:30;;;;;;;4.88;3.70;;;;;;;;;;5135600;27;20222;-65
2024/01/18 11:06:58;;;;;;;3.90;3.60;;;;;;;;;;5135702;27;20252;-65
2024/01/18 11:09:26;;;;;;;4.50;4.10;;;;;;;;;;5134927;27;20422;-65
2024/01/18 11:11:54;;;;;;;4.28;3.88;;;;;;;;;;5134318;27;20198;-65
2024/01/18 11:14:22;;;;;;;4.63;4.22;;;;;;;;;;5132845;27;20570;-65
2024/01/18 11:16:50;;;;;;;4.30;3.63;;;;;;;;;;5132999;27;20202;-65
2024/01/18 11:19:18;;;;;;;4.43;3.95;;;;;;;;;;5131633;27;20609;-65
2024/01/18 11:21:47;;;;;;;4.15;3.75;;;;;;;;;;5133573;27;20703;-65
2024/01/18 11:24:15;;;;;;;4.18;3.78;;;;;;;;;;5133529;27;20630;-65
2024/01/18 11:26:43;;;;;;;4.28;3.80;;;;;;;;;;5133353;27;20225;-65
2024/01/18 11:29:22;;;;;;;4.15;3.75;;;;;;;;;;5133500;27;20194;-65
2024/01/18 11:31:50;;;;;;;4.00;3.65;;;;;;;;;;5133561;27;20202;-65
2024/01/18 11:34:26;;;;;;;4.18;3.78;;;;;;;;;;5134348;27;20198;-65
2024/01/18 11:37:09;;;;;;;4.30;3.90;;;;;;;;;;5133101;27;20231;-65
2024/01/18 11:39:55;;;;;;;4.55;3.65;;;;;;;;;;5132094;27;20214;-65
2024/01/18 11:42:24;;;;;;;4.25;3.85;;;;;;;;;;5134137;27;20202;-65
2024/01/18 11:44:55;;;;;;;4.20;3.80;;;;;;;;;;5132389;27;20225;-65
2024/01/18 11:47:23;;;;;;;4.15;3.75;;;;;;;;;;5133486;27;20229;-65
2024/01/18 11:49:50;;;;;;;4.25;3.85;;;;;;;;;;5133345;27;20283;-65
2024/01/18 11:52:22;;;;;;;3.92;3.63;;;;;;;;;;5134526;27;20587;-65
2024/01/18 11:54:52;;;;;;;4.38;3.70;;;;;;;;;;5133200;27;20206;-65
2024/01/18 11:57:20;;;;;;;4.28;3.88;;;;;;;;;;5133912;27;20279;-65
2024/01/18 11:59:47;;;;;;;3.85;3.55;;;;;;;;;;5133305;27;20622;-65
2024/01/18 12:02:15;;;;;;;3.65;3.35;;;;;;;;;;5132640;28;20217;-65
2024/01/18 12:04:42;;;;;;;3.83;3.47;;;;;;;;;;5132604;28;20237;-64
2024/01/18 12:07:10;;;;;;;3.92;3.63;;;;;;;;;;5133091;28;20198;-64
2024/01/18 12:09:39;;;;;;;4.68;3.90;;;;;;;;;;5133481;28;20198;-64
2024/01/18 12:12:07;;;;;;;4.18;3.50;;;;;;;;;;5132774;28;20566;-65
2024/01/18 12:14:35;;;;;;;3.72;3.40;;;;;;;;;;5131799;28;20386;-65
2024/01/18 12:17:02;;;;;;;4.13;3.60;;;;;;;;;;5132203;28;20198;-65
2024/01/18 12:19:33;;;;;;;3.72;3.42;;;;;;;;;;5132761;28;20496;-65
2024/01/18 12:22:02;;;;;;;3.97;3.58;;;;;;;;;;5131555;28;20197;-65
2024/01/18 12:24:30;;;;;;;3.75;3.30;;;;;;;;;;5133096;28;20660;-64
2024/01/18 12:26:59;;;;;;;3.80;3.42;;;;;;;;;;5133738;28;20476;-64
2024/01/18 12:29:26;;;;;;;3.70;3.40;;;;;;;;;;5132499;28;20194;-64
2024/01/18 12:31:54;;;;;;;3.80;3.17;;;;;;;;;;5133008;28;20202;-64
2024/01/18 12:34:22;;;;;;;3.58;3.28;;;;;;;;;;5131994;28;20190;-64
2024/01/18 12:36:50;;;;;;;3.53;3.22;;;;;;;;;;5133671;28;20198;-64
2024/01/18 12:39:19;;;;;;;3.90;3.50;;;;;;;;;;5132221;28;20263;-64
2024/01/18 12:41:46;;;;;;;3.42;3.13;;;;;;;;;;5132596;28;20593;-64
2024/01/18 12:44:15;;;;;;;3.95;3.50;;;;;;;;;;5132602;28;20359;-65
2024/01/18 12:46:42;;;;;;;3.30;3.00;;;;;;;;;;5134055;28;20206;-65
2024/01/18 12:49:12;;;;;;;4.25;3.40;;;;;;;;;;5132536;28;20213;-64
2024/01/18 12:51:39;;;;;;;4.25;3.50;;;;;;;;;;5132813;28;20206;-64
2024/01/18 12:54:07;;;;;;;3.22;2.92;;;;;;;;;;5133278;28;20218;-64
2024/01/18 12:56:35;;;;;;;3.67;3.38;;;;;;;;;;5132135;28;20567;-64
2024/01/18 12:59:08;;;;;;;4.07;3.20;;;;;;;;;;5136236;27;20251;-64
2024/01/18 13:01:37;;;;;;;3.60;3.30;;;;;;;;;;5114506;28;20206;-64
2024/01/18 13:04:15;;;;;;;3.38;3.08;;;;;;;;;;5115135;28;20623;-64
2024/01/18 13:06:43;;;;;;;3.70;3.10;;;;;;;;;;5115539;28;20233;-64
2024/01/18 13:09:10;;;;;;;3.17;2.90;;;;;;;;;;5115651;28;20203;-65
2024/01/18 13:11:38;;;;;;;3.40;3.03;;;;;;;;;;5116386;28;20210;-65
2024/01/18 13:14:06;;;;;;;3.47;3.17;;;;;;;;;;5114648;28;20210;-64
2024/01/18 13:16:33;;;;;;;3.58;3.28;;;;;;;;;;5114395;28;20203;-64
2024/01/18 13:19:03;;;;;;;3.53;3.22;;;;;;;;;;5115130;28;20203;-64
2024/01/18 13:21:30;;;;;;;3.20;2.90;;;;;;;;;;5114960;28;20203;-65
2024/01/18 13:23:58;;;;;;;3.53;3.22;;;;;;;;;;5114148;28;20215;-64
2024/01/18 13:26:25;;;;;;;5.13;3.28;;;;;;;;;;5114927;28;20233;-64
2024/01/18 13:28:53;;;;;;;3.65;3.30;;;;;;;;;;5113251;28;20203;-64
2024/01/18 13:31:20;;;;;;;3.50;3.20;;;;;;;;;;5114601;28;20213;-64
2024/01/18 13:33:48;;;;;;;3.63;3.33;;;;;;;;;;5114684;28;20203;-64
2024/01/18 13:36:17;;;;;;;3.30;3.00;;;;;;;;;;5114221;28;20242;-64
2024/01/18 13:38:44;;;;;;;3.42;3.13;;;;;;;;;;5114937;28;20508;-64
2024/01/18 13:41:12;;;;;;;3.60;3.30;;;;;;;;;;5114543;28;20203;-64
2024/01/18 13:43:39;;;;;;;3.55;3.25;;;;;;;;;;5112977;28;20260;-64
2024/01/18 13:46:06;;;;;;;3.72;3.42;;;;;;;;;;5114160;28;20423;-65
2024/01/18 13:48:35;;;;;;;3.60;3.30;;;;;;;;;;5114422;28;20218;-64
2024/01/18 13:51:02;;;;;;;3.60;3.30;;;;;;;;;;5113440;28;20264;-64
2024/01/18 13:53:31;;;;;;;4.75;3.47;;;;;;;;;;5113933;28;20462;-64
2024/01/18 13:55:58;;;;;;;4.28;3.65;;;;;;;;;;5114080;28;20309;-64
2024/01/18 13:58:26;;;;;;;3.75;3.33;;;;;;;;;;5115022;28;20275;-63
2024/01/18 14:00:53;;;;;;;3.50;3.20;;;;;;;;;;5114801;27;20246;-64
2024/01/18 14:03:20;;;;;;;4.00;3.60;;;;;;;;;;5114375;28;20202;-63
2024/01/18 14:05:48;;;;;;;4.95;3.70;;;;;;;;;;5114979;28;20525;-63
2024/01/18 14:08:16;;;;;;;3.53;3.22;;;;;;;;;;5115945;28;20682;-64
2024/01/18 14:10:46;;;;;;;3.78;3.33;;;;;;;;;;5115143;28;20482;-64
2024/01/18 14:13:13;;;;;;;3.85;3.50;;;;;;;;;;5114241;28;20211;-64
2024/01/18 14:15:40;;;;;;;5.35;3.55;;;;;;;;;;5113794;28;20195;-64
2024/01/18 14:18:10;;;;;;;3.92;3.38;;;;;;;;;;5112991;28;20203;-64
2024/01/18 14:20:37;;;;;;;3.90;3.50;;;;;;;;;;5113985;28;20495;-64
2024/01/18 14:23:05;;;;;;;3.90;3.50;;;;;;;;;;5114006;28;20207;-64
2024/01/18 14:25:34;;;;;;;4.43;3.75;;;;;;;;;;5113198;28;20219;-64
2024/01/18 14:28:03;;;;;;;4.50;3.67;;;;;;;;;;5113986;28;20571;-63
2024/01/18 14:30:30;;;;;;;4.07;3.67;;;;;;;;;;5113544;28;20203;-63
2024/01/18 14:32:58;;;;;;;4.10;3.70;;;;;;;;;;5113671;28;20205;-63
2024/01/18 14:35:26;;;;;;;4.30;3.63;;;;;;;;;;5113361;28;20203;-64
2024/01/18 14:37:53;;;;;;;11.18;3.90;;;;;;;;;;5112039;28;20213;-64
2024/01/18 14:40:20;;;;;;;4.03;3.63;;;;;;;;;;5113583;28;20567;-64
2024/01/18 14:42:48;;;;;;;4.25;3.85;;;;;;;;;;5113205;28;20213;-64
2024/01/18 14:45:20;;;;;;;3.75;3.45;;;;;;;;;;5112853;28;20218;-64
2024/01/18 14:47:47;;;;;;;4.10;3.70;;;;;;;;;;5113229;28;20210;-64